CYVO

Val-D'or Airport

Val-D'or, , Canada
METAR CYVO 201500Z 07007G16KT 15SM FEW012 OVC040 M10/M13 A3011 RMK SF1SC7 SLP228
Observed Flight Rules
Feb-20 @ 15:00 UTC (22 hours ago) Visual Flight Rules
Wind Visibility Clouds
70° at 7 knots
 Gusting to 16 knots
15 miles
  • Few at 1,200' AGL
  • Overcast at 4,000' AGL
Temperatures Readings
Current -10°C / 14°F
Dewpoint -13°C / 9°F
Humidity 79%
Altimeter 30.11" Hg
Pressure 1022.8 hPa
Elevation 337
METAR CYVO 201500Z 07007G16KT 15SM FEW012 OVC040 M10/M13 A3011 RMK SF1SC7 SLP228
Observed Flight Rules
Feb-20 @ 15:00 UTC
(22 hours ago)
VFR
Wind Visibility
70° at 7 knots
 Gusting to 16 knots
15 miles
Clouds
  • Few at 1,200' AGL
  • Overcast at 4,000' AGL
Temperature Dewpoint
-10°C / 14°F -13°C / 9°F
Humidity Altimeter Pressure
79% 30.11" Hg 1022.8 hPa